sensor_id;sensor_type;location;lat;lon;timestamp;pressure;altitude;pressure_sealevel;temperature;humidity
4326;BME280;58429;49.826;10.880;2023-03-16T00:00:30;99173;;;-0.66;85.96
4326;BME280;58429;49.826;10.880;2023-03-16T00:01:30;99174;;;-0.65;85.97
4326;BME280;58429;49.826;10.880;2023-03-16T00:02:30;99171;;;-0.69;86.09
4326;BME280;58429;49.826;10.880;2023-03-16T00:03:30;99175;;;-0.69;86.04
4326;BME280;58429;49.826;10.880;2023-03-16T00:04:30;99168;;;-0.65;86.05
4326;BME280;58429;49.826;10.880;2023-03-16T00:05:30;99170;;;-0.66;86.31
4326;BME280;58429;49.826;10.880;2023-03-16T00:06:30;99178;;;-0.65;86.28
4326;BME280;58429;49.826;10.880;2023-03-16T00:07:30;99178;;;-0.68;86.26
4326;BME280;58429;49.826;10.880;2023-03-16T00:08:30;99183;;;-0.66;86.39
4326;BME280;58429;49.826;10.880;2023-03-16T00:09:30;99181;;;-0.66;86.6
4326;BME280;58429;49.826;10.880;2023-03-16T00:10:30;99176;;;-0.69;86.73
4326;BME280;58429;49.826;10.880;2023-03-16T00:11:30;99183;;;-0.7;86.89
4326;BME280;58429;49.826;10.880;2023-03-16T00:12:30;99179;;;-0.74;87.01
4326;BME280;58429;49.826;10.880;2023-03-16T00:13:30;99181;;;-0.77;87.01
4326;BME280;58429;49.826;10.880;2023-03-16T00:14:31;99185;;;-0.84;86.99
4326;BME280;58429;49.826;10.880;2023-03-16T00:15:30;99183;;;-0.79;87.02
4326;BME280;58429;49.826;10.880;2023-03-16T00:16:30;99177;;;-0.79;87.17
4326;BME280;58429;49.826;10.880;2023-03-16T00:17:30;99183;;;-0.83;87.44
4326;BME280;58429;49.826;10.880;2023-03-16T00:18:30;99177;;;-0.78;87.57
4326;BME280;58429;49.826;10.880;2023-03-16T00:19:30;99180;;;-0.78;87.55
4326;BME280;58429;49.826;10.880;2023-03-16T00:20:30;99184;;;-0.79;87.41
4326;BME280;58429;49.826;10.880;2023-03-16T00:21:30;99183;;;-0.82;87.54
4326;BME280;58429;49.826;10.880;2023-03-16T00:22:30;99180;;;-0.81;87.68
4326;BME280;58429;49.826;10.880;2023-03-16T00:23:30;99184;;;-0.82;87.72
4326;BME280;58429;49.826;10.880;2023-03-16T00:24:30;99179;;;-0.85;87.7
4326;BME280;58429;49.826;10.880;2023-03-16T00:25:30;99174;;;-0.88;87.73
4326;BME280;58429;49.826;10.880;2023-03-16T00:26:30;99180;;;-0.85;87.94
4326;BME280;58429;49.826;10.880;2023-03-16T00:27:30;99179;;;-0.85;88.06
4326;BME280;58429;49.826;10.880;2023-03-16T00:28:31;99178;;;-0.92;88.14
4326;BME280;58429;49.826;10.880;2023-03-16T00:29:30;99173;;;-0.87;88.16
4326;BME280;58429;49.826;10.880;2023-03-16T00:30:30;99179;;;-0.89;87.96
4326;BME280;58429;49.826;10.880;2023-03-16T00:31:30;99186;;;-0.88;87.79
4326;BME280;58429;49.826;10.880;2023-03-16T00:32:31;99178;;;-0.86;87.8
4326;BME280;58429;49.826;10.880;2023-03-16T00:33:30;99184;;;-0.92;87.76
4326;BME280;58429;49.826;10.880;2023-03-16T00:34:30;99185;;;-0.93;87.81
4326;BME280;58429;49.826;10.880;2023-03-16T00:35:30;99182;;;-0.92;87.77
4326;BME280;58429;49.826;10.880;2023-03-16T00:36:30;99186;;;-0.97;87.87
4326;BME280;58429;49.826;10.880;2023-03-16T00:37:30;99189;;;-0.97;87.97
4326;BME280;58429;49.826;10.880;2023-03-16T00:38:31;99180;;;-0.96;87.92
4326;BME280;58429;49.826;10.880;2023-03-16T00:39:30;99183;;;-0.97;87.8
4326;BME280;58429;49.826;10.880;2023-03-16T00:40:30;99182;;;-1.01;87.68
4326;BME280;58429;49.826;10.880;2023-03-16T00:41:30;99184;;;-0.96;87.65
4326;BME280;58429;49.826;10.880;2023-03-16T00:42:30;99178;;;-0.94;87.55
4326;BME280;58429;49.826;10.880;2023-03-16T00:43:30;99179;;;-0.95;87.44
4326;BME280;58429;49.826;10.880;2023-03-16T00:44:30;99187;;;-0.97;87.4
4326;BME280;58429;49.826;10.880;2023-03-16T00:45:31;99182;;;-1.01;87.45
4326;BME280;58429;49.826;10.880;2023-03-16T00:46:30;99179;;;-1.02;87.58
4326;BME280;58429;49.826;10.880;2023-03-16T00:47:31;99174;;;-1.02;87.58
4326;BME280;58429;49.826;10.880;2023-03-16T00:48:30;99172;;;-1.01;87.77
4326;BME280;58429;49.826;10.880;2023-03-16T00:49:30;99175;;;-1.08;87.78
4326;BME280;58429;49.826;10.880;2023-03-16T00:50:30;99172;;;-1.07;87.69
4326;BME280;58429;49.826;10.880;2023-03-16T00:51:30;99173;;;-1.05;87.59
4326;BME280;58429;49.826;10.880;2023-03-16T00:52:30;99169;;;-1.01;87.54
4326;BME280;58429;49.826;10.880;2023-03-16T00:53:31;99173;;;-1.01;87.5
4326;BME280;58429;49.826;10.880;2023-03-16T00:54:30;99172;;;-1.03;87.38
4326;BME280;58429;49.826;10.880;2023-03-16T00:55:30;99173;;;-0.99;87.41
4326;BME280;58429;49.826;10.880;2023-03-16T00:56:30;99173;;;-1;87.43
4326;BME280;58429;49.826;10.880;2023-03-16T00:57:30;99176;;;-0.97;87.33
4326;BME280;58429;49.826;10.880;2023-03-16T00:58:30;99176;;;-0.98;87.22
4326;BME280;58429;49.826;10.880;2023-03-16T00:59:30;99173;;;-1.01;87.16
4326;BME280;58429;49.826;10.880;2023-03-16T01:00:30;99167;;;-0.98;87.15
4326;BME280;58429;49.826;10.880;2023-03-16T01:01:30;99167;;;-1;87.17
4326;BME280;58429;49.826;10.880;2023-03-16T01:02:30;99166;;;-1.01;87.17
4326;BME280;58429;49.826;10.880;2023-03-16T01:03:30;99168;;;-1;87.42
4326;BME280;58429;49.826;10.880;2023-03-16T01:04:30;99173;;;-1.03;87.33
4326;BME280;58429;49.826;10.880;2023-03-16T01:05:30;99172;;;-1.04;87.19
4326;BME280;58429;49.826;10.880;2023-03-16T01:06:30;99174;;;-1.03;87.08
4326;BME280;58429;49.826;10.880;2023-03-16T01:07:30;99176;;;-1.07;86.99
4326;BME280;58429;49.826;10.880;2023-03-16T01:08:30;99182;;;-1.07;86.99
4326;BME280;58429;49.826;10.880;2023-03-16T01:09:30;99173;;;-1.08;87
4326;BME280;58429;49.826;10.880;2023-03-16T01:10:30;99172;;;-1.08;86.93
4326;BME280;58429;49.826;10.880;2023-03-16T01:11:30;99174;;;-1.06;86.91
4326;BME280;58429;49.826;10.880;2023-03-16T01:12:30;99172;;;-1.12;86.93
4326;BME280;58429;49.826;10.880;2023-03-16T01:13:30;99176;;;-1.16;86.83
4326;BME280;58429;49.826;10.880;2023-03-16T01:14:30;99175;;;-1.2;86.69
4326;BME280;58429;49.826;10.880;2023-03-16T01:15:30;99172;;;-1.2;86.64
4326;BME280;58429;49.826;10.880;2023-03-16T01:16:30;99171;;;-1.19;86.64
4326;BME280;58429;49.826;10.880;2023-03-16T01:17:30;99172;;;-1.21;86.6
4326;BME280;58429;49.826;10.880;2023-03-16T01:18:30;99174;;;-1.22;86.57
4326;BME280;58429;49.826;10.880;2023-03-16T01:19:30;99164;;;-1.27;86.46
4326;BME280;58429;49.826;10.880;2023-03-16T01:20:30;99160;;;-1.22;86.51
4326;BME280;58429;49.826;10.880;2023-03-16T01:21:30;99168;;;-1.22;86.55
4326;BME280;58429;49.826;10.880;2023-03-16T01:22:30;99170;;;-1.23;86.49
4326;BME280;58429;49.826;10.880;2023-03-16T01:23:30;99171;;;-1.26;86.45
4326;BME280;58429;49.826;10.880;2023-03-16T01:24:30;99172;;;-1.29;86.49
4326;BME280;58429;49.826;10.880;2023-03-16T01:25:30;99179;;;-1.36;86.51
4326;BME280;58429;49.826;10.880;2023-03-16T01:26:30;99181;;;-1.39;86.58
4326;BME280;58429;49.826;10.880;2023-03-16T01:27:30;99186;;;-1.39;86.61
4326;BME280;58429;49.826;10.880;2023-03-16T01:28:30;99181;;;-1.39;86.8
4326;BME280;58429;49.826;10.880;2023-03-16T01:29:30;99173;;;-1.39;86.79
4326;BME280;58429;49.826;10.880;2023-03-16T01:30:30;99170;;;-1.37;86.81
4326;BME280;58429;49.826;10.880;2023-03-16T01:31:30;99165;;;-1.34;86.77
4326;BME280;58429;49.826;10.880;2023-03-16T01:32:30;99164;;;-1.35;86.72
4326;BME280;58429;49.826;10.880;2023-03-16T01:33:31;99166;;;-1.28;86.69
4326;BME280;58429;49.826;10.880;2023-03-16T01:34:30;99177;;;-1.3;86.75
4326;BME280;58429;49.826;10.880;2023-03-16T01:35:30;99174;;;-1.29;86.72
4326;BME280;58429;49.826;10.880;2023-03-16T01:36:30;99179;;;-1.33;86.78
4326;BME280;58429;49.826;10.880;2023-03-16T01:37:30;99178;;;-1.34;86.84
4326;BME280;58429;49.826;10.880;2023-03-16T01:38:30;99173;;;-1.28;86.85
4326;BME280;58429;49.826;10.880;2023-03-16T01:39:30;99171;;;-1.29;86.82
4326;BME280;58429;49.826;10.880;2023-03-16T01:40:30;99170;;;-1.27;86.76
4326;BME280;58429;49.826;10.880;2023-03-16T01:41:30;99169;;;-1.25;86.72
4326;BME280;58429;49.826;10.880;2023-03-16T01:42:30;99171;;;-1.24;86.63
4326;BME280;58429;49.826;10.880;2023-03-16T01:43:31;99168;;;-1.23;86.61
4326;BME280;58429;49.826;10.880;2023-03-16T01:44:48;99168;;;-1.2;86.57
4326;BME280;58429;49.826;10.880;2023-03-16T01:46:30;99169;;;-1.2;86.52
4326;BME280;58429;49.826;10.880;2023-03-16T01:46:35;99166;;;-1.2;86.56
4326;BME280;58429;49.826;10.880;2023-03-16T01:47:30;99171;;;-1.2;86.55
4326;BME280;58429;49.826;10.880;2023-03-16T01:48:30;99169;;;-1.2;86.52
4326;BME280;58429;49.826;10.880;2023-03-16T01:49:31;99168;;;-1.2;86.51
4326;BME280;58429;49.826;10.880;2023-03-16T01:50:30;99170;;;-1.2;86.56
4326;BME280;58429;49.826;10.880;2023-03-16T01:51:32;99164;;;-1.23;86.53
4326;BME280;58429;49.826;10.880;2023-03-16T01:52:31;99170;;;-1.22;86.51
4326;BME280;58429;49.826;10.880;2023-03-16T01:53:30;99168;;;-1.2;86.5
4326;BME280;58429;49.826;10.880;2023-03-16T01:54:31;99160;;;-1.18;86.53
4326;BME280;58429;49.826;10.880;2023-03-16T01:55:30;99165;;;-1.18;86.53
4326;BME280;58429;49.826;10.880;2023-03-16T01:56:32;99162;;;-1.16;86.5
4326;BME280;58429;49.826;10.880;2023-03-16T01:57:31;99159;;;-1.15;86.49
4326;BME280;58429;49.826;10.880;2023-03-16T01:58:30;99152;;;-1.12;86.47
4326;BME280;58429;49.826;10.880;2023-03-16T01:59:32;99161;;;-1.12;86.52
4326;BME280;58429;49.826;10.880;2023-03-16T02:00:30;99157;;;-1.14;86.52
4326;BME280;58429;49.826;10.880;2023-03-16T02:01:30;99153;;;-1.13;86.47
4326;BME280;58429;49.826;10.880;2023-03-16T02:02:30;99156;;;-1.13;86.48
4326;BME280;58429;49.826;10.880;2023-03-16T02:03:30;99153;;;-1.06;86.49
4326;BME280;58429;49.826;10.880;2023-03-16T02:04:35;99150;;;-1.09;86.45
4326;BME280;58429;49.826;10.880;2023-03-16T02:05:31;99154;;;-1.07;86.45
4326;BME280;58429;49.826;10.880;2023-03-16T02:06:30;99155;;;-1.01;86.48
4326;BME280;58429;49.826;10.880;2023-03-16T02:07:31;99165;;;-1.04;86.45
4326;BME280;58429;49.826;10.880;2023-03-16T02:08:30;99156;;;-1.02;86.47
4326;BME280;58429;49.826;10.880;2023-03-16T02:09:30;99159;;;-1.02;86.43
4326;BME280;58429;49.826;10.880;2023-03-16T02:10:30;99163;;;-0.99;86.44
4326;BME280;58429;49.826;10.880;2023-03-16T02:11:30;99157;;;-0.99;86.42
4326;BME280;58429;49.826;10.880;2023-03-16T02:12:30;99151;;;-0.97;86.42
4326;BME280;58429;49.826;10.880;2023-03-16T02:13:30;99157;;;-0.97;86.41
4326;BME280;58429;49.826;10.880;2023-03-16T02:14:30;99160;;;-0.96;86.41
4326;BME280;58429;49.826;10.880;2023-03-16T02:15:30;99151;;;-0.96;86.39
4326;BME280;58429;49.826;10.880;2023-03-16T02:16:30;99156;;;-0.97;86.37
4326;BME280;58429;49.826;10.880;2023-03-16T02:17:31;99147;;;-0.96;86.39
4326;BME280;58429;49.826;10.880;2023-03-16T02:18:30;99153;;;-0.94;86.41
4326;BME280;58429;49.826;10.880;2023-03-16T02:19:34;99155;;;-0.92;86.43
4326;BME280;58429;49.826;10.880;2023-03-16T02:20:32;99157;;;-0.91;86.44
4326;BME280;58429;49.826;10.880;2023-03-16T02:21:31;99153;;;-0.88;86.48
4326;BME280;58429;49.826;10.880;2023-03-16T02:22:30;99146;;;-0.88;86.47
4326;BME280;58429;49.826;10.880;2023-03-16T02:23:30;99152;;;-0.87;86.5
4326;BME280;58429;49.826;10.880;2023-03-16T02:24:30;99145;;;-0.89;86.5
4326;BME280;58429;49.826;10.880;2023-03-16T02:25:38;99151;;;-0.87;86.57
4326;BME280;58429;49.826;10.880;2023-03-16T02:26:32;99153;;;-0.86;86.58
4326;BME280;58429;49.826;10.880;2023-03-16T02:27:32;99153;;;-0.85;86.55
4326;BME280;58429;49.826;10.880;2023-03-16T02:28:31;99149;;;-0.82;86.55
4326;BME280;58429;49.826;10.880;2023-03-16T02:29:51;99150;;;-0.81;86.55
4326;BME280;58429;49.826;10.880;2023-03-16T02:30:30;99152;;;-0.73;86.57
4326;BME280;58429;49.826;10.880;2023-03-16T02:31:30;99148;;;-0.78;86.58
4326;BME280;58429;49.826;10.880;2023-03-16T02:32:30;99150;;;-0.77;86.57
4326;BME280;58429;49.826;10.880;2023-03-16T02:33:30;99147;;;-0.79;86.57
4326;BME280;58429;49.826;10.880;2023-03-16T02:34:30;99147;;;-0.76;86.63
4326;BME280;58429;49.826;10.880;2023-03-16T02:35:30;99150;;;-0.8;86.67
4326;BME280;58429;49.826;10.880;2023-03-16T02:36:30;99148;;;-0.76;86.74
4326;BME280;58429;49.826;10.880;2023-03-16T02:37:30;99146;;;-0.77;86.81
4326;BME280;58429;49.826;10.880;2023-03-16T02:38:30;99144;;;-0.79;86.81
4326;BME280;58429;49.826;10.880;2023-03-16T02:39:30;99140;;;-0.77;86.94
4326;BME280;58429;49.826;10.880;2023-03-16T02:40:31;99147;;;-0.79;87.13
4326;BME280;58429;49.826;10.880;2023-03-16T02:41:30;99146;;;-0.82;87.32
4326;BME280;58429;49.826;10.880;2023-03-16T02:42:30;99142;;;-0.83;87.5
4326;BME280;58429;49.826;10.880;2023-03-16T02:43:31;99139;;;-0.86;87.78
4326;BME280;58429;49.826;10.880;2023-03-16T02:44:31;99143;;;-0.87;87.9
4326;BME280;58429;49.826;10.880;2023-03-16T02:45:32;99138;;;-0.9;88.07
4326;BME280;58429;49.826;10.880;2023-03-16T02:46:30;99138;;;-0.92;88.27
4326;BME280;58429;49.826;10.880;2023-03-16T02:47:32;99131;;;-0.96;88.61
4326;BME280;58429;49.826;10.880;2023-03-16T02:48:31;99130;;;-1.02;88.9
4326;BME280;58429;49.826;10.880;2023-03-16T02:49:31;99128;;;-1.05;89.14
4326;BME280;58429;49.826;10.880;2023-03-16T02:50:30;99125;;;-1.03;89.34
4326;BME280;58429;49.826;10.880;2023-03-16T02:51:30;99121;;;-1.09;89.38
4326;BME280;58429;49.826;10.880;2023-03-16T02:52:30;99123;;;-1.05;89.23
4326;BME280;58429;49.826;10.880;2023-03-16T02:53:30;99125;;;-1.04;89.27
4326;BME280;58429;49.826;10.880;2023-03-16T02:54:30;99119;;;-1.01;89.28
4326;BME280;58429;49.826;10.880;2023-03-16T02:55:30;99120;;;-1;89.17
4326;BME280;58429;49.826;10.880;2023-03-16T02:56:30;99121;;;-0.96;89.16
4326;BME280;58429;49.826;10.880;2023-03-16T02:57:30;99129;;;-0.96;89.17
4326;BME280;58429;49.826;10.880;2023-03-16T02:58:30;99126;;;-0.98;89.25
4326;BME280;58429;49.826;10.880;2023-03-16T02:59:30;99121;;;-0.98;89.29
4326;BME280;58429;49.826;10.880;2023-03-16T03:00:30;99131;;;-0.98;89.38
4326;BME280;58429;49.826;10.880;2023-03-16T03:01:30;99125;;;-1.01;89.35
4326;BME280;58429;49.826;10.880;2023-03-16T03:02:30;99132;;;-1.01;89.31
4326;BME280;58429;49.826;10.880;2023-03-16T03:03:30;99129;;;-0.97;89.29
4326;BME280;58429;49.826;10.880;2023-03-16T03:04:30;99134;;;-0.95;89.33
4326;BME280;58429;49.826;10.880;2023-03-16T03:05:30;99135;;;-0.98;89.41
4326;BME280;58429;49.826;10.880;2023-03-16T03:06:30;99132;;;-0.97;89.44
4326;BME280;58429;49.826;10.880;2023-03-16T03:07:30;99128;;;-0.94;89.44
4326;BME280;58429;49.826;10.880;2023-03-16T03:08:30;99137;;;-0.93;89.54
4326;BME280;58429;49.826;10.880;2023-03-16T03:09:30;99130;;;-0.91;89.49
4326;BME280;58429;49.826;10.880;2023-03-16T03:10:30;99138;;;-0.93;89.45
4326;BME280;58429;49.826;10.880;2023-03-16T03:11:30;99142;;;-0.95;89.57
4326;BME280;58429;49.826;10.880;2023-03-16T03:12:30;99137;;;-0.97;89.68
4326;BME280;58429;49.826;10.880;2023-03-16T03:13:30;99140;;;-1;89.68
4326;BME280;58429;49.826;10.880;2023-03-16T03:14:30;99139;;;-1.02;89.64
4326;BME280;58429;49.826;10.880;2023-03-16T03:15:30;99142;;;-0.99;89.62
4326;BME280;58429;49.826;10.880;2023-03-16T03:16:30;99135;;;-0.95;89.62
4326;BME280;58429;49.826;10.880;2023-03-16T03:17:30;99139;;;-0.94;89.59
4326;BME280;58429;49.826;10.880;2023-03-16T03:18:30;99141;;;-0.91;89.57
4326;BME280;58429;49.826;10.880;2023-03-16T03:19:30;99146;;;-0.9;89.53
4326;BME280;58429;49.826;10.880;2023-03-16T03:20:30;99141;;;-0.92;89.47
4326;BME280;58429;49.826;10.880;2023-03-16T03:21:30;99144;;;-0.93;89.47
4326;BME280;58429;49.826;10.880;2023-03-16T03:22:30;99146;;;-0.95;89.47
4326;BME280;58429;49.826;10.880;2023-03-16T03:23:30;99151;;;-0.92;89.59
4326;BME280;58429;49.826;10.880;2023-03-16T03:24:30;99149;;;-0.91;89.6
4326;BME280;58429;49.826;10.880;2023-03-16T03:25:30;99144;;;-0.91;89.53
4326;BME280;58429;49.826;10.880;2023-03-16T03:26:30;99156;;;-0.87;89.48
4326;BME280;58429;49.826;10.880;2023-03-16T03:27:30;99150;;;-0.88;89.47
4326;BME280;58429;49.826;10.880;2023-03-16T03:28:30;99147;;;-0.86;89.51
4326;BME280;58429;49.826;10.880;2023-03-16T03:29:30;99141;;;-0.85;89.46
4326;BME280;58429;49.826;10.880;2023-03-16T03:30:30;99144;;;-0.85;89.46
4326;BME280;58429;49.826;10.880;2023-03-16T03:31:30;99145;;;-0.84;89.53
4326;BME280;58429;49.826;10.880;2023-03-16T03:32:30;99149;;;-0.83;89.5
4326;BME280;58429;49.826;10.880;2023-03-16T03:33:30;99156;;;-0.83;89.56
4326;BME280;58429;49.826;10.880;2023-03-16T03:34:30;99153;;;-0.81;89.53
4326;BME280;58429;49.826;10.880;2023-03-16T03:35:30;99152;;;-0.83;89.51
4326;BME280;58429;49.826;10.880;2023-03-16T03:36:30;99147;;;-0.8;89.48
4326;BME280;58429;49.826;10.880;2023-03-16T03:37:30;99152;;;-0.88;89.48
4326;BME280;58429;49.826;10.880;2023-03-16T03:38:30;99150;;;-0.88;89.47
4326;BME280;58429;49.826;10.880;2023-03-16T03:39:30;99153;;;-0.9;89.47
4326;BME280;58429;49.826;10.880;2023-03-16T03:40:30;99155;;;-0.87;89.47
4326;BME280;58429;49.826;10.880;2023-03-16T03:41:31;99150;;;-0.87;89.47
4326;BME280;58429;49.826;10.880;2023-03-16T03:42:30;99154;;;-0.84;89.49
4326;BME280;58429;49.826;10.880;2023-03-16T03:43:30;99155;;;-0.85;89.41
4326;BME280;58429;49.826;10.880;2023-03-16T03:44:30;99154;;;-0.81;89.38
4326;BME280;58429;49.826;10.880;2023-03-16T03:45:30;99152;;;-0.84;89.4
4326;BME280;58429;49.826;10.880;2023-03-16T03:46:30;99153;;;-0.87;89.39
4326;BME280;58429;49.826;10.880;2023-03-16T03:47:30;99147;;;-0.86;89.37
4326;BME280;58429;49.826;10.880;2023-03-16T03:48:30;99148;;;-0.84;89.36
4326;BME280;58429;49.826;10.880;2023-03-16T03:49:30;99142;;;-0.85;89.29
4326;BME280;58429;49.826;10.880;2023-03-16T03:50:30;99145;;;-0.81;89.3
4326;BME280;58429;49.826;10.880;2023-03-16T03:51:30;99142;;;-0.78;89.27
4326;BME280;58429;49.826;10.880;2023-03-16T03:52:30;99147;;;-0.8;89.27
4326;BME280;58429;49.826;10.880;2023-03-16T03:53:30;99151;;;-0.81;89.27
4326;BME280;58429;49.826;10.880;2023-03-16T03:54:30;99144;;;-0.86;89.27
4326;BME280;58429;49.826;10.880;2023-03-16T03:55:30;99148;;;-0.82;89.28
4326;BME280;58429;49.826;10.880;2023-03-16T03:56:30;99153;;;-0.8;89.26
4326;BME280;58429;49.826;10.880;2023-03-16T03:57:30;99148;;;-0.8;89.29
4326;BME280;58429;49.826;10.880;2023-03-16T03:58:30;99146;;;-0.79;89.28
4326;BME280;58429;49.826;10.880;2023-03-16T03:59:30;99144;;;-0.79;89.28
4326;BME280;58429;49.826;10.880;2023-03-16T04:00:30;99146;;;-0.79;89.3
4326;BME280;58429;49.826;10.880;2023-03-16T04:01:30;99140;;;-0.79;89.37
4326;BME280;58429;49.826;10.880;2023-03-16T04:02:30;99138;;;-0.84;89.54
4326;BME280;58429;49.826;10.880;2023-03-16T04:03:30;99134;;;-0.84;89.6
4326;BME280;58429;49.826;10.880;2023-03-16T04:04:30;99138;;;-0.85;89.55
4326;BME280;58429;49.826;10.880;2023-03-16T04:05:31;99131;;;-0.84;89.48
4326;BME280;58429;49.826;10.880;2023-03-16T04:06:30;99134;;;-0.83;89.44
4326;BME280;58429;49.826;10.880;2023-03-16T04:07:30;99134;;;-0.82;89.38
4326;BME280;58429;49.826;10.880;2023-03-16T04:08:30;99138;;;-0.79;89.39
4326;BME280;58429;49.826;10.880;2023-03-16T04:09:30;99138;;;-0.79;89.34
4326;BME280;58429;49.826;10.880;2023-03-16T04:10:30;99137;;;-0.79;89.32
4326;BME280;58429;49.826;10.880;2023-03-16T04:11:30;99143;;;-0.81;89.29
4326;BME280;58429;49.826;10.880;2023-03-16T04:12:30;99139;;;-0.84;89.32
4326;BME280;58429;49.826;10.880;2023-03-16T04:13:30;99137;;;-0.84;89.33
4326;BME280;58429;49.826;10.880;2023-03-16T04:14:30;99138;;;-0.85;89.32
4326;BME280;58429;49.826;10.880;2023-03-16T04:15:30;99139;;;-0.85;89.28
4326;BME280;58429;49.826;10.880;2023-03-16T04:16:30;99140;;;-0.8;89.3
4326;BME280;58429;49.826;10.880;2023-03-16T04:17:30;99136;;;-0.82;89.27
4326;BME280;58429;49.826;10.880;2023-03-16T04:18:30;99144;;;-0.81;89.28
4326;BME280;58429;49.826;10.880;2023-03-16T04:19:30;99147;;;-0.82;89.28
4326;BME280;58429;49.826;10.880;2023-03-16T04:20:30;99150;;;-0.78;89.26
4326;BME280;58429;49.826;10.880;2023-03-16T04:21:30;99143;;;-0.8;89.28
4326;BME280;58429;49.826;10.880;2023-03-16T04:22:30;99148;;;-0.79;89.24
4326;BME280;58429;49.826;10.880;2023-03-16T04:23:31;99148;;;-0.79;89.24
4326;BME280;58429;49.826;10.880;2023-03-16T04:24:30;99144;;;-0.79;89.23
4326;BME280;58429;49.826;10.880;2023-03-16T04:25:30;99152;;;-0.79;89.24
4326;BME280;58429;49.826;10.880;2023-03-16T04:26:30;99149;;;-0.78;89.23
4326;BME280;58429;49.826;10.880;2023-03-16T04:27:30;99147;;;-0.77;89.21
4326;BME280;58429;49.826;10.880;2023-03-16T04:28:31;99146;;;-0.81;89.17
4326;BME280;58429;49.826;10.880;2023-03-16T04:29:30;99145;;;-0.76;89.2
4326;BME280;58429;49.826;10.880;2023-03-16T04:30:30;99147;;;-0.77;89.14
4326;BME280;58429;49.826;10.880;2023-03-16T04:31:30;99143;;;-0.77;89.11
4326;BME280;58429;49.826;10.880;2023-03-16T04:32:30;99144;;;-0.76;89.06
4326;BME280;58429;49.826;10.880;2023-03-16T04:33:30;99140;;;-0.79;89.03
4326;BME280;58429;49.826;10.880;2023-03-16T04:34:30;99143;;;-0.8;89
4326;BME280;58429;49.826;10.880;2023-03-16T04:35:30;99143;;;-0.81;89.05
4326;BME280;58429;49.826;10.880;2023-03-16T04:36:30;99137;;;-0.84;89.03
4326;BME280;58429;49.826;10.880;2023-03-16T04:37:30;99136;;;-0.78;89.03
4326;BME280;58429;49.826;10.880;2023-03-16T04:38:31;99133;;;-0.82;88.96
4326;BME280;58429;49.826;10.880;2023-03-16T04:39:30;99138;;;-0.78;88.96
4326;BME280;58429;49.826;10.880;2023-03-16T04:40:30;99132;;;-0.78;88.95
4326;BME280;58429;49.826;10.880;2023-03-16T04:41:31;99140;;;-0.8;88.98
4326;BME280;58429;49.826;10.880;2023-03-16T04:42:30;99130;;;-0.82;88.94
4326;BME280;58429;49.826;10.880;2023-03-16T04:43:31;99132;;;-0.79;88.86
4326;BME280;58429;49.826;10.880;2023-03-16T04:44:30;99126;;;-0.77;88.83
4326;BME280;58429;49.826;10.880;2023-03-16T04:45:30;99136;;;-0.79;88.8
4326;BME280;58429;49.826;10.880;2023-03-16T04:46:30;99128;;;-0.8;88.79
4326;BME280;58429;49.826;10.880;2023-03-16T04:47:30;99131;;;-0.85;88.76
4326;BME280;58429;49.826;10.880;2023-03-16T04:48:30;99127;;;-0.86;88.78
4326;BME280;58429;49.826;10.880;2023-03-16T04:49:30;99128;;;-0.85;88.72
4326;BME280;58429;49.826;10.880;2023-03-16T04:50:30;99123;;;-0.85;88.67
4326;BME280;58429;49.826;10.880;2023-03-16T04:51:30;99132;;;-0.85;88.62
4326;BME280;58429;49.826;10.880;2023-03-16T04:52:30;99132;;;-0.82;88.61
4326;BME280;58429;49.826;10.880;2023-03-16T04:53:30;99137;;;-0.84;88.57
4326;BME280;58429;49.826;10.880;2023-03-16T04:54:30;99140;;;-0.84;88.54
4326;BME280;58429;49.826;10.880;2023-03-16T04:55:30;99132;;;-0.81;88.47
4326;BME280;58429;49.826;10.880;2023-03-16T04:56:30;99124;;;-0.85;88.45
4326;BME280;58429;49.826;10.880;2023-03-16T04:57:30;99135;;;-0.85;88.4
4326;BME280;58429;49.826;10.880;2023-03-16T04:58:30;99129;;;-0.84;88.36
4326;BME280;58429;49.826;10.880;2023-03-16T04:59:30;99129;;;-0.83;88.3
4326;BME280;58429;49.826;10.880;2023-03-16T05:00:30;99126;;;-0.89;88.25
4326;BME280;58429;49.826;10.880;2023-03-16T05:01:30;99122;;;-0.83;88.25
4326;BME280;58429;49.826;10.880;2023-03-16T05:02:30;99126;;;-0.86;88.19
4326;BME280;58429;49.826;10.880;2023-03-16T05:03:30;99121;;;-0.87;88.15
4326;BME280;58429;49.826;10.880;2023-03-16T05:04:30;99125;;;-0.89;88.14
4326;BME280;58429;49.826;10.880;2023-03-16T05:05:30;99124;;;-0.91;88.06
4326;BME280;58429;49.826;10.880;2023-03-16T05:06:30;99130;;;-0.92;88.06
4326;BME280;58429;49.826;10.880;2023-03-16T05:07:30;99129;;;-0.92;88
4326;BME280;58429;49.826;10.880;2023-03-16T05:08:30;99132;;;-0.96;87.96
4326;BME280;58429;49.826;10.880;2023-03-16T05:09:30;99129;;;-0.97;87.9
4326;BME280;58429;49.826;10.880;2023-03-16T05:10:31;99132;;;-0.96;87.88
4326;BME280;58429;49.826;10.880;2023-03-16T05:11:30;99131;;;-0.97;87.81
4326;BME280;58429;49.826;10.880;2023-03-16T05:12:30;99133;;;-0.95;87.78
4326;BME280;58429;49.826;10.880;2023-03-16T05:13:30;99128;;;-0.97;87.77
4326;BME280;58429;49.826;10.880;2023-03-16T05:14:30;99124;;;-0.99;87.75
4326;BME280;58429;49.826;10.880;2023-03-16T05:15:30;99124;;;-0.97;87.73
4326;BME280;58429;49.826;10.880;2023-03-16T05:16:30;99124;;;-1.01;87.73
4326;BME280;58429;49.826;10.880;2023-03-16T05:17:30;99125;;;-1.01;87.68
4326;BME280;58429;49.826;10.880;2023-03-16T05:18:30;99125;;;-1.07;87.66
4326;BME280;58429;49.826;10.880;2023-03-16T05:19:30;99124;;;-1.03;87.64
4326;BME280;58429;49.826;10.880;2023-03-16T05:20:31;99122;;;-1.07;87.6
4326;BME280;58429;49.826;10.880;2023-03-16T05:21:30;99119;;;-1.1;87.58
4326;BME280;58429;49.826;10.880;2023-03-16T05:22:30;99127;;;-1.07;87.58
4326;BME280;58429;49.826;10.880;2023-03-16T05:23:30;99114;;;-1.08;87.53
4326;BME280;58429;49.826;10.880;2023-03-16T05:24:31;99115;;;-1.06;87.48
4326;BME280;58429;49.826;10.880;2023-03-16T05:25:30;99116;;;-1.07;87.49
4326;BME280;58429;49.826;10.880;2023-03-16T05:26:30;99115;;;-1.06;87.45
4326;BME280;58429;49.826;10.880;2023-03-16T05:27:30;99118;;;-1.07;87.4
4326;BME280;58429;49.826;10.880;2023-03-16T05:28:30;99123;;;-1.09;87.37
4326;BME280;58429;49.826;10.880;2023-03-16T05:29:30;99117;;;-1.13;87.33
4326;BME280;58429;49.826;10.880;2023-03-16T05:30:30;99116;;;-1.1;87.32
4326;BME280;58429;49.826;10.880;2023-03-16T05:31:30;99117;;;-1.14;87.27